sensor_id;sensor_type;location;lat;lon;timestamp;P1;durP1;ratioP1;P2;durP2;ratioP2
63953;SDS011;50128;52.094;5.232;2022-09-24T00:00:06;32.1;;;28.7;;
63953;SDS011;50128;52.094;5.232;2022-09-24T00:01:43;33.71;;;30.2;;
63953;SDS011;50128;52.094;5.232;2022-09-24T00:03:20;30.6;;;27.5;;
63953;SDS011;50128;52.094;5.232;2022-09-24T00:06:34;30.9;;;27.8;;
63953;SDS011;50128;52.094;5.232;2022-09-24T00:08:14;31.2;;;28.0;;
63953;SDS011;50128;52.094;5.232;2022-09-24T00:09:52;30.0;;;26.9;;
63953;SDS011;50128;52.094;5.232;2022-09-24T00:11:28;30.7;;;27.5;;
63953;SDS011;50128;52.094;5.232;2022-09-24T00:14:44;30.6;;;27.5;;
63953;SDS011;50128;52.094;5.232;2022-09-24T00:16:21;29.2;;;26.3;;
63953;SDS011;50128;52.094;5.232;2022-09-24T00:18:00;27.7;;;24.9;;
63953;SDS011;50128;52.094;5.232;2022-09-24T00:21:13;29.4;;;26.5;;
63953;SDS011;50128;52.094;5.232;2022-09-24T00:22:53;28.7;;;25.8;;
63953;SDS011;50128;52.094;5.232;2022-09-24T00:27:21;29.8;;;26.7;;
63953;SDS011;50128;52.094;5.232;2022-09-24T00:28:57;29.1;;;26.1;;
63953;SDS011;50128;52.094;5.232;2022-09-24T00:30:36;29.3;;;26.2;;
63953;SDS011;50128;52.094;5.232;2022-09-24T00:33:51;26.7;;;23.9;;
63953;SDS011;50128;52.094;5.232;2022-09-24T00:35:30;29.0;;;26.0;;
63953;SDS011;50128;52.094;5.232;2022-09-24T00:37:08;24.8;;;22.3;;
63953;SDS011;50128;52.094;5.232;2022-09-24T00:38:46;27.0;;;24.2;;
63953;SDS011;50128;52.094;5.232;2022-09-24T00:42:03;25.2;;;22.6;;
63953;SDS011;50128;52.094;5.232;2022-09-24T00:43:40;25.2;;;22.6;;
63953;SDS011;50128;52.094;5.232;2022-09-24T00:45:17;29.0;;;25.3;;
63953;SDS011;50128;52.094;5.232;2022-09-24T00:48:33;24.3;;;21.8;;
63953;SDS011;50128;52.094;5.232;2022-09-24T00:50:13;24.9;;;22.3;;
63953;SDS011;50128;52.094;5.232;2022-09-24T00:51:53;22.4;;;20.11;;
63953;SDS011;50128;52.094;5.232;2022-09-24T00:53:32;25.8;;;23.1;;
63953;SDS011;50128;52.094;5.232;2022-09-24T00:56:48;25.3;;;22.7;;
63953;SDS011;50128;52.094;5.232;2022-09-24T00:58:26;22.4;;;20.11;;
63953;SDS011;50128;52.094;5.232;2022-09-24T01:00:06;25.4;;;22.7;;
63953;SDS011;50128;52.094;5.232;2022-09-24T01:01:45;24.6;;;22.1;;
63953;SDS011;50128;52.094;5.232;2022-09-24T01:05:03;23.4;;;21.0;;
63953;SDS011;50128;52.094;5.232;2022-09-24T01:08:16;22.8;;;20.5;;
63953;SDS011;50128;52.094;5.232;2022-09-24T01:11:35;24.8;;;22.3;;
63953;SDS011;50128;52.094;5.232;2022-09-24T01:13:26;24.0;;;21.5;;
63953;SDS011;50128;52.094;5.232;2022-09-24T01:15:18;26.5;;;23.8;;
63953;SDS011;50128;52.094;5.232;2022-09-24T01:17:03;27.8;;;25.0;;
63953;SDS011;50128;52.094;5.232;2022-09-24T01:18:50;27.4;;;24.6;;
63953;SDS011;50128;52.094;5.232;2022-09-24T01:20:39;29.5;;;26.4;;
63953;SDS011;50128;52.094;5.232;2022-09-24T01:23:32;29.8;;;26.6;;
63953;SDS011;50128;52.094;5.232;2022-09-24T01:26:32;30.8;;;27.6;;
63953;SDS011;50128;52.094;5.232;2022-09-24T01:28:30;31.8;;;28.4;;
63953;SDS011;50128;52.094;5.232;2022-09-24T01:30:15;31.8;;;28.5;;
63953;SDS011;50128;52.094;5.232;2022-09-24T01:31:52;33.1;;;29.6;;
63953;SDS011;50128;52.094;5.232;2022-09-24T01:33:33;35.31;;;31.4;;
63953;SDS011;50128;52.094;5.232;2022-09-24T01:35:14;34.1;;;30.5;;
63953;SDS011;50128;52.094;5.232;2022-09-24T01:38:38;35.1;;;31.3;;
63953;SDS011;50128;52.094;5.232;2022-09-24T01:40:17;32.9;;;29.6;;
63953;SDS011;50128;52.094;5.232;2022-09-24T01:41:57;36.5;;;32.71;;
63953;SDS011;50128;52.094;5.232;2022-09-24T01:43:34;33.9;;;30.4;;
63953;SDS011;50128;52.094;5.232;2022-09-24T01:46:50;32.8;;;29.5;;
63953;SDS011;50128;52.094;5.232;2022-09-24T01:48:29;37.71;;;33.5;;
63953;SDS011;50128;52.094;5.232;2022-09-24T01:50:05;36.31;;;32.5;;
63953;SDS011;50128;52.094;5.232;2022-09-24T01:53:26;33.3;;;30.0;;
63953;SDS011;50128;52.094;5.232;2022-09-24T01:55:06;35.5;;;31.7;;
63953;SDS011;50128;52.094;5.232;2022-09-24T01:56:46;37.1;;;33.1;;
63953;SDS011;50128;52.094;5.232;2022-09-24T01:58:27;37.4;;;33.4;;
63953;SDS011;50128;52.094;5.232;2022-09-24T02:01:49;39.0;;;34.0;;
63953;SDS011;50128;52.094;5.232;2022-09-24T02:03:43;38.81;;;34.6;;
63953;SDS011;50128;52.094;5.232;2022-09-24T02:05:27;34.0;;;30.7;;
63953;SDS011;50128;52.094;5.232;2022-09-24T02:07:22;34.6;;;31.0;;
63953;SDS011;50128;52.094;5.232;2022-09-24T02:09:26;36.5;;;32.71;;
63953;SDS011;50128;52.094;5.232;2022-09-24T02:11:05;38.9;;;34.6;;
63953;SDS011;50128;52.094;5.232;2022-09-24T02:14:29;34.71;;;31.1;;
63953;SDS011;50128;52.094;5.232;2022-09-24T02:16:12;31.8;;;28.5;;
63953;SDS011;50128;52.094;5.232;2022-09-24T02:17:56;36.6;;;32.6;;
63953;SDS011;50128;52.094;5.232;2022-09-24T02:19:37;35.31;;;31.5;;
63953;SDS011;50128;52.094;5.232;2022-09-24T02:21:17;31.2;;;28.0;;
63953;SDS011;50128;52.094;5.232;2022-09-24T02:24:36;35.21;;;31.4;;
63953;SDS011;50128;52.094;5.232;2022-09-24T02:26:20;38.0;;;32.6;;
63953;SDS011;50128;52.094;5.232;2022-09-24T02:27:56;35.81;;;31.9;;
63953;SDS011;50128;52.094;5.232;2022-09-24T02:29:32;32.3;;;29.0;;
63953;SDS011;50128;52.094;5.232;2022-09-24T02:32:48;31.9;;;28.5;;
63953;SDS011;50128;52.094;5.232;2022-09-24T02:34:28;33.21;;;29.7;;
63953;SDS011;50128;52.094;5.232;2022-09-24T02:36:10;33.3;;;29.8;;
63953;SDS011;50128;52.094;5.232;2022-09-24T02:39:23;33.5;;;30.0;;
63953;SDS011;50128;52.094;5.232;2022-09-24T02:41:00;35.1;;;31.3;;
63953;SDS011;50128;52.094;5.232;2022-09-24T02:42:37;35.9;;;32.1;;
63953;SDS011;50128;52.094;5.232;2022-09-24T02:44:13;37.6;;;33.5;;
63953;SDS011;50128;52.094;5.232;2022-09-24T02:47:27;43.1;;;36.6;;
63953;SDS011;50128;52.094;5.232;2022-09-24T02:49:04;38.81;;;34.4;;
63953;SDS011;50128;52.094;5.232;2022-09-24T02:50:40;38.81;;;34.6;;
63953;SDS011;50128;52.094;5.232;2022-09-24T02:53:53;38.9;;;34.71;;
63953;SDS011;50128;52.094;5.232;2022-09-24T02:55:29;37.4;;;33.5;;
63953;SDS011;50128;52.094;5.232;2022-09-24T02:57:06;42.3;;;37.1;;
63953;SDS011;50128;52.094;5.232;2022-09-24T03:00:20;42.8;;;37.31;;
63953;SDS011;50128;52.094;5.232;2022-09-24T03:01:57;43.6;;;37.31;;
63953;SDS011;50128;52.094;5.232;2022-09-24T03:03:33;40.21;;;35.71;;
63953;SDS011;50128;52.094;5.232;2022-09-24T03:05:10;42.0;;;35.5;;
63953;SDS011;50128;52.094;5.232;2022-09-24T03:08:23;40.4;;;36.0;;
63953;SDS011;50128;52.094;5.232;2022-09-24T03:09:59;41.9;;;36.1;;
63953;SDS011;50128;52.094;5.232;2022-09-24T03:11:35;38.9;;;34.6;;
63953;SDS011;50128;52.094;5.232;2022-09-24T03:14:48;40.0;;;34.71;;
63953;SDS011;50128;52.094;5.232;2022-09-24T03:16:24;39.21;;;34.4;;
63953;SDS011;50128;52.094;5.232;2022-09-24T03:18:02;40.5;;;34.6;;
63953;SDS011;50128;52.094;5.232;2022-09-24T03:21:15;40.31;;;35.21;;
63953;SDS011;50128;52.094;5.232;2022-09-24T03:22:54;34.31;;;30.7;;
63953;SDS011;50128;52.094;5.232;2022-09-24T03:24:30;34.9;;;31.2;;
63953;SDS011;50128;52.094;5.232;2022-09-24T03:26:06;35.9;;;32.0;;
63953;SDS011;50128;52.094;5.232;2022-09-24T03:30:59;35.9;;;31.5;;
63953;SDS011;50128;52.094;5.232;2022-09-24T03:32:35;35.9;;;32.1;;
63953;SDS011;50128;52.094;5.232;2022-09-24T03:35:48;34.81;;;31.0;;
63953;SDS011;50128;52.094;5.232;2022-09-24T03:37:24;34.81;;;31.1;;
63953;SDS011;50128;52.094;5.232;2022-09-24T03:39:00;37.6;;;33.1;;
63953;SDS011;50128;52.094;5.232;2022-09-24T03:42:12;37.1;;;32.71;;
63953;SDS011;50128;52.094;5.232;2022-09-24T03:43:48;35.1;;;31.4;;
63953;SDS011;50128;52.094;5.232;2022-09-24T03:45:24;35.4;;;31.8;;
63953;SDS011;50128;52.094;5.232;2022-09-24T03:47:01;39.81;;;34.81;;
63953;SDS011;50128;52.094;5.232;2022-09-24T03:50:16;36.31;;;32.4;;
63953;SDS011;50128;52.094;5.232;2022-09-24T03:51:52;35.21;;;31.6;;
63953;SDS011;50128;52.094;5.232;2022-09-24T03:53:28;38.31;;;34.1;;
63953;SDS011;50128;52.094;5.232;2022-09-24T03:56:42;39.4;;;34.31;;
63953;SDS011;50128;52.094;5.232;2022-09-24T03:58:18;37.5;;;33.3;;
63953;SDS011;50128;52.094;5.232;2022-09-24T03:59:55;37.5;;;33.5;;
63953;SDS011;50128;52.094;5.232;2022-09-24T04:03:08;35.4;;;31.8;;
63953;SDS011;50128;52.094;5.232;2022-09-24T04:04:45;37.81;;;33.71;;
63953;SDS011;50128;52.094;5.232;2022-09-24T04:06:21;35.6;;;31.8;;
63953;SDS011;50128;52.094;5.232;2022-09-24T04:07:58;35.6;;;31.8;;
63953;SDS011;50128;52.094;5.232;2022-09-24T04:11:12;35.31;;;31.6;;
63953;SDS011;50128;52.094;5.232;2022-09-24T04:12:48;36.0;;;32.3;;
63953;SDS011;50128;52.094;5.232;2022-09-24T04:14:25;38.0;;;34.0;;
63953;SDS011;50128;52.094;5.232;2022-09-24T04:17:38;34.1;;;30.5;;
63953;SDS011;50128;52.094;5.232;2022-09-24T04:19:15;33.6;;;30.1;;
63953;SDS011;50128;52.094;5.232;2022-09-24T04:20:55;38.5;;;34.5;;
63953;SDS011;50128;52.094;5.232;2022-09-24T04:22:33;37.81;;;33.8;;
63953;SDS011;50128;52.094;5.232;2022-09-24T04:25:46;37.6;;;33.6;;
63953;SDS011;50128;52.094;5.232;2022-09-24T04:27:22;37.71;;;33.6;;
63953;SDS011;50128;52.094;5.232;2022-09-24T04:28:59;34.6;;;31.0;;
63953;SDS011;50128;52.094;5.232;2022-09-24T04:32:13;39.21;;;34.9;;
63953;SDS011;50128;52.094;5.232;2022-09-24T04:33:50;37.4;;;33.4;;
63953;SDS011;50128;52.094;5.232;2022-09-24T04:35:26;37.1;;;33.21;;
63953;SDS011;50128;52.094;5.232;2022-09-24T04:38:41;38.21;;;34.1;;
63953;SDS011;50128;52.094;5.232;2022-09-24T04:40:17;37.6;;;33.6;;
63953;SDS011;50128;52.094;5.232;2022-09-24T04:41:54;38.1;;;33.71;;
63953;SDS011;50128;52.094;5.232;2022-09-24T04:43:31;36.0;;;32.1;;
63953;SDS011;50128;52.094;5.232;2022-09-24T04:46:45;32.8;;;29.4;;
63953;SDS011;50128;52.094;5.232;2022-09-24T04:48:23;35.9;;;32.0;;
63953;SDS011;50128;52.094;5.232;2022-09-24T04:50:01;36.21;;;32.21;;
63953;SDS011;50128;52.094;5.232;2022-09-24T04:53:15;40.0;;;33.4;;
63953;SDS011;50128;52.094;5.232;2022-09-24T04:54:51;35.31;;;31.5;;
63953;SDS011;50128;52.094;5.232;2022-09-24T04:56:27;36.31;;;32.4;;
63953;SDS011;50128;52.094;5.232;2022-09-24T04:58:03;36.9;;;32.9;;
63953;SDS011;50128;52.094;5.232;2022-09-24T05:01:15;36.5;;;32.71;;
63953;SDS011;50128;52.094;5.232;2022-09-24T05:02:55;33.8;;;30.4;;
63953;SDS011;50128;52.094;5.232;2022-09-24T05:04:32;35.71;;;31.9;;
63953;SDS011;50128;52.094;5.232;2022-09-24T05:07:46;34.71;;;30.9;;
63953;SDS011;50128;52.094;5.232;2022-09-24T05:09:22;33.9;;;30.1;;
63953;SDS011;50128;52.094;5.232;2022-09-24T05:11:01;36.9;;;32.9;;
63953;SDS011;50128;52.094;5.232;2022-09-24T05:14:16;37.4;;;33.3;;
63953;SDS011;50128;52.094;5.232;2022-09-24T05:15:52;35.9;;;32.0;;
63953;SDS011;50128;52.094;5.232;2022-09-24T05:17:28;35.5;;;31.7;;
63953;SDS011;50128;52.094;5.232;2022-09-24T05:19:04;36.71;;;32.71;;
63953;SDS011;50128;52.094;5.232;2022-09-24T05:22:16;39.81;;;33.5;;
63953;SDS011;50128;52.094;5.232;2022-09-24T05:23:53;37.5;;;33.5;;
63953;SDS011;50128;52.094;5.232;2022-09-24T05:25:30;38.4;;;33.4;;
63953;SDS011;50128;52.094;5.232;2022-09-24T05:28:45;36.31;;;32.4;;
63953;SDS011;50128;52.094;5.232;2022-09-24T05:30:22;36.1;;;32.21;;
63953;SDS011;50128;52.094;5.232;2022-09-24T05:32:03;33.6;;;30.0;;
63953;SDS011;50128;52.094;5.232;2022-09-24T05:33:41;37.1;;;32.5;;
63953;SDS011;50128;52.094;5.232;2022-09-24T05:36:54;36.6;;;32.71;;
63953;SDS011;50128;52.094;5.232;2022-09-24T05:38:31;36.81;;;32.8;;
63953;SDS011;50128;52.094;5.232;2022-09-24T05:41:13;35.4;;;31.5;;
63953;SDS011;50128;52.094;5.232;2022-09-24T05:42:49;36.31;;;32.4;;
63953;SDS011;50128;52.094;5.232;2022-09-24T05:44:26;37.71;;;33.0;;
63953;SDS011;50128;52.094;5.232;2022-09-24T05:47:39;36.21;;;32.21;;
63953;SDS011;50128;52.094;5.232;2022-09-24T05:49:15;35.4;;;31.6;;
63953;SDS011;50128;52.094;5.232;2022-09-24T05:50:54;37.0;;;32.9;;
63953;SDS011;50128;52.094;5.232;2022-09-24T05:52:30;37.6;;;33.4;;
63953;SDS011;50128;52.094;5.232;2022-09-24T05:55:43;36.71;;;32.3;;
63953;SDS011;50128;52.094;5.232;2022-09-24T05:57:20;38.1;;;34.0;;
63953;SDS011;50128;52.094;5.232;2022-09-24T05:58:56;39.6;;;33.5;;
63953;SDS011;50128;52.094;5.232;2022-09-24T06:02:09;40.21;;;32.8;;
63953;SDS011;50128;52.094;5.232;2022-09-24T06:03:48;35.1;;;31.4;;
63953;SDS011;50128;52.094;5.232;2022-09-24T06:05:24;38.21;;;33.3;;
63953;SDS011;50128;52.094;5.232;2022-09-24T06:08:38;38.81;;;34.1;;
63953;SDS011;50128;52.094;5.232;2022-09-24T06:10:15;39.6;;;34.31;;
63953;SDS011;50128;52.094;5.232;2022-09-24T06:11:53;36.5;;;32.6;;
63953;SDS011;50128;52.094;5.232;2022-09-24T06:13:30;37.31;;;33.1;;
63953;SDS011;50128;52.094;5.232;2022-09-24T06:16:44;33.3;;;29.8;;
63953;SDS011;50128;52.094;5.232;2022-09-24T06:18:21;35.81;;;31.9;;
63953;SDS011;50128;52.094;5.232;2022-09-24T06:19:57;32.6;;;29.3;;
63953;SDS011;50128;52.094;5.232;2022-09-24T06:23:09;36.6;;;32.71;;
63953;SDS011;50128;52.094;5.232;2022-09-24T06:24:45;37.4;;;33.1;;
63953;SDS011;50128;52.094;5.232;2022-09-24T06:26:21;34.81;;;31.1;;
63953;SDS011;50128;52.094;5.232;2022-09-24T06:29:38;35.5;;;31.7;;
63953;SDS011;50128;52.094;5.232;2022-09-24T06:31:15;35.1;;;31.3;;
63953;SDS011;50128;52.094;5.232;2022-09-24T06:32:51;39.1;;;34.81;;
63953;SDS011;50128;52.094;5.232;2022-09-24T06:34:28;36.9;;;32.71;;
63953;SDS011;50128;52.094;5.232;2022-09-24T06:37:41;37.1;;;33.1;;
63953;SDS011;50128;52.094;5.232;2022-09-24T06:39:17;39.9;;;34.1;;
63953;SDS011;50128;52.094;5.232;2022-09-24T06:40:56;37.0;;;33.0;;
63953;SDS011;50128;52.094;5.232;2022-09-24T06:44:11;34.5;;;30.9;;
63953;SDS011;50128;52.094;5.232;2022-09-24T06:45:47;37.71;;;32.8;;
63953;SDS011;50128;52.094;5.232;2022-09-24T06:47:23;37.4;;;33.3;;
63953;SDS011;50128;52.094;5.232;2022-09-24T06:48:59;38.31;;;34.21;;
63953;SDS011;50128;52.094;5.232;2022-09-24T06:52:15;36.5;;;32.6;;
63953;SDS011;50128;52.094;5.232;2022-09-24T06:53:52;38.9;;;33.8;;
63953;SDS011;50128;52.094;5.232;2022-09-24T06:55:28;34.21;;;30.6;;
63953;SDS011;50128;52.094;5.232;2022-09-24T06:58:42;36.0;;;32.1;;
63953;SDS011;50128;52.094;5.232;2022-09-24T07:00:18;33.9;;;30.3;;
63953;SDS011;50128;52.094;5.232;2022-09-24T07:01:54;35.9;;;32.0;;
63953;SDS011;50128;52.094;5.232;2022-09-24T07:05:08;34.6;;;30.8;;
63953;SDS011;50128;52.094;5.232;2022-09-24T07:07:49;35.6;;;31.8;;
63953;SDS011;50128;52.094;5.232;2022-09-24T07:09:26;38.0;;;33.9;;
63953;SDS011;50128;52.094;5.232;2022-09-24T07:11:03;36.4;;;32.4;;
63953;SDS011;50128;52.094;5.232;2022-09-24T07:12:40;36.1;;;32.21;;
63953;SDS011;50128;52.094;5.232;2022-09-24T07:14:17;34.9;;;31.1;;
63953;SDS011;50128;52.094;5.232;2022-09-24T07:17:29;35.71;;;31.1;;
63953;SDS011;50128;52.094;5.232;2022-09-24T07:19:05;37.6;;;32.71;;
63953;SDS011;50128;52.094;5.232;2022-09-24T07:20:43;32.6;;;29.3;;
63953;SDS011;50128;52.094;5.232;2022-09-24T07:23:57;36.5;;;31.4;;
63953;SDS011;50128;52.094;5.232;2022-09-24T07:25:33;34.81;;;31.1;;
63953;SDS011;50128;52.094;5.232;2022-09-24T07:27:11;36.31;;;31.7;;
63953;SDS011;50128;52.094;5.232;2022-09-24T07:28:48;37.5;;;32.71;;
63953;SDS011;50128;52.094;5.232;2022-09-24T07:32:01;37.5;;;32.71;;
63953;SDS011;50128;52.094;5.232;2022-09-24T07:33:39;38.5;;;33.6;;
63953;SDS011;50128;52.094;5.232;2022-09-24T07:35:15;36.71;;;32.6;;
63953;SDS011;50128;52.094;5.232;2022-09-24T07:38:29;35.21;;;31.3;;
63953;SDS011;50128;52.094;5.232;2022-09-24T07:40:06;33.4;;;29.7;;
63953;SDS011;50128;52.094;5.232;2022-09-24T07:41:42;35.71;;;31.5;;
63953;SDS011;50128;52.094;5.232;2022-09-24T07:43:19;35.0;;;31.2;;
63953;SDS011;50128;52.094;5.232;2022-09-24T07:46:32;34.81;;;31.1;;
63953;SDS011;50128;52.094;5.232;2022-09-24T07:48:09;36.9;;;31.8;;
63953;SDS011;50128;52.094;5.232;2022-09-24T07:49:46;38.1;;;32.71;;
63953;SDS011;50128;52.094;5.232;2022-09-24T07:53:00;35.5;;;29.6;;
63953;SDS011;50128;52.094;5.232;2022-09-24T07:54:36;34.5;;;30.5;;
63953;SDS011;50128;52.094;5.232;2022-09-24T07:56:12;34.5;;;30.4;;
63953;SDS011;50128;52.094;5.232;2022-09-24T07:59:29;34.21;;;29.3;;
63953;SDS011;50128;52.094;5.232;2022-09-24T08:01:05;33.5;;;29.1;;
63953;SDS011;50128;52.094;5.232;2022-09-24T08:02:41;31.4;;;28.1;;
63953;SDS011;50128;52.094;5.232;2022-09-24T08:04:17;32.21;;;28.8;;
63953;SDS011;50128;52.094;5.232;2022-09-24T08:07:34;34.0;;;30.4;;
63953;SDS011;50128;52.094;5.232;2022-09-24T08:09:10;32.71;;;29.2;;
63953;SDS011;50128;52.094;5.232;2022-09-24T08:10:46;32.0;;;28.3;;
63953;SDS011;50128;52.094;5.232;2022-09-24T08:14:00;31.1;;;27.8;;
63953;SDS011;50128;52.094;5.232;2022-09-24T08:15:37;33.3;;;28.2;;
63953;SDS011;50128;52.094;5.232;2022-09-24T08:17:16;34.5;;;29.2;;
63953;SDS011;50128;52.094;5.232;2022-09-24T08:20:29;31.3;;;27.9;;
63953;SDS011;50128;52.094;5.232;2022-09-24T08:22:07;31.0;;;27.8;;
63953;SDS011;50128;52.094;5.232;2022-09-24T08:23:43;29.7;;;26.5;;
63953;SDS011;50128;52.094;5.232;2022-09-24T08:25:20;29.5;;;26.0;;
63953;SDS011;50128;52.094;5.232;2022-09-24T08:28:33;27.4;;;24.6;;
63953;SDS011;50128;52.094;5.232;2022-09-24T08:30:10;28.3;;;25.4;;
63953;SDS011;50128;52.094;5.232;2022-09-24T08:31:48;29.7;;;26.5;;
63953;SDS011;50128;52.094;5.232;2022-09-24T08:35:01;30.1;;;26.3;;
63953;SDS011;50128;52.094;5.232;2022-09-24T08:36:38;30.4;;;26.6;;
63953;SDS011;50128;52.094;5.232;2022-09-24T08:38:14;30.1;;;24.8;;
63953;SDS011;50128;52.094;5.232;2022-09-24T08:39:51;28.3;;;24.8;;
63953;SDS011;50128;52.094;5.232;2022-09-24T08:43:36;28.6;;;24.7;;
63953;SDS011;50128;52.094;5.232;2022-09-24T08:48:13;24.5;;;20.6;;
63953;SDS011;50128;52.094;5.232;2022-09-24T08:51:45;24.3;;;21.4;;
63953;SDS011;50128;52.094;5.232;2022-09-24T08:53:41;23.3;;;19.91;;
63953;SDS011;50128;52.094;5.232;2022-09-24T08:55:24;20.5;;;18.2;;
63953;SDS011;50128;52.094;5.232;2022-09-24T08:57:09;18.5;;;16.5;;
63953;SDS011;50128;52.094;5.232;2022-09-24T08:58:51;21.9;;;17.8;;
63953;SDS011;50128;52.094;5.232;2022-09-24T09:02:30;18.7;;;16.7;;
63953;SDS011;50128;52.094;5.232;2022-09-24T09:04:20;19.3;;;16.9;;
63953;SDS011;50128;52.094;5.232;2022-09-24T09:06:08;19.3;;;16.9;;
63953;SDS011;50128;52.094;5.232;2022-09-24T09:07:52;19.8;;;16.8;;
63953;SDS011;50128;52.094;5.232;2022-09-24T09:09:40;16.4;;;14.6;;
63953;SDS011;50128;52.094;5.232;2022-09-24T09:11:22;19.3;;;17.2;;
63953;SDS011;50128;52.094;5.232;2022-09-24T09:14:53;20.5;;;16.7;;
63953;SDS011;50128;52.094;5.232;2022-09-24T09:16:39;19.0;;;16.2;;
63953;SDS011;50128;52.094;5.232;2022-09-24T09:18:22;19.5;;;17.11;;
63953;SDS011;50128;52.094;5.232;2022-09-24T09:20:06;18.3;;;16.2;;
63953;SDS011;50128;52.094;5.232;2022-09-24T09:21:51;19.7;;;17.5;;
63953;SDS011;50128;52.094;5.232;2022-09-24T09:25:18;19.11;;;16.3;;
63953;SDS011;50128;52.094;5.232;2022-09-24T09:26:58;18.2;;;16.11;;
63953;SDS011;50128;52.094;5.232;2022-09-24T09:28:34;18.61;;;16.3;;
63953;SDS011;50128;52.094;5.232;2022-09-24T09:30:12;20.7;;;16.8;;
63953;SDS011;50128;52.094;5.232;2022-09-24T09:33:58;20.41;;;16.7;;
63953;SDS011;50128;52.094;5.232;2022-09-24T09:36:22;20.7;;;17.3;;
63953;SDS011;50128;52.094;5.232;2022-09-24T09:38:11;20.6;;;16.9;;
63953;SDS011;50128;52.094;5.232;2022-09-24T09:40:00;21.0;;;17.11;;
63953;SDS011;50128;52.094;5.232;2022-09-24T09:41:54;20.41;;;16.8;;
63953;SDS011;50128;52.094;5.232;2022-09-24T09:43:37;19.5;;;16.61;;
63953;SDS011;50128;52.094;5.232;2022-09-24T09:45:18;20.3;;;16.9;;
63953;SDS011;50128;52.094;5.232;2022-09-24T09:47:10;19.91;;;16.2;;
63953;SDS011;50128;52.094;5.232;2022-09-24T09:48:55;19.8;;;16.7;;
63953;SDS011;50128;52.094;5.232;2022-09-24T09:52:20;17.0;;;13.8;;
63953;SDS011;50128;52.094;5.232;2022-09-24T09:54:01;13.7;;;11.9;;
63953;SDS011;50128;52.094;5.232;2022-09-24T09:55:39;12.2;;;10.6;;
63953;SDS011;50128;52.094;5.232;2022-09-24T09:57:17;12.9;;;11.3;;
63953;SDS011;50128;52.094;5.232;2022-09-24T10:00:41;11.8;;;10.5;;
63953;SDS011;50128;52.094;5.232;2022-09-24T10:02:21;11.8;;;10.5;;
63953;SDS011;50128;52.094;5.232;2022-09-24T10:04:02;11.9;;;9.71;;
63953;SDS011;50128;52.094;5.232;2022-09-24T10:05:42;12.0;;;10.1;;
63953;SDS011;50128;52.094;5.232;2022-09-24T10:09:18;11.5;;;9.5;;
63953;SDS011;50128;52.094;5.232;2022-09-24T10:10:55;11.2;;;9.5;;
63953;SDS011;50128;52.094;5.232;2022-09-24T10:12:33;11.4;;;9.1;;
63953;SDS011;50128;52.094;5.232;2022-09-24T10:14:10;11.0;;;9.31;;
63953;SDS011;50128;52.094;5.232;2022-09-24T10:17:31;10.0;;;8.5;;
63953;SDS011;50128;52.094;5.232;2022-09-24T10:19:13;11.2;;;9.5;;
63953;SDS011;50128;52.094;5.232;2022-09-24T10:20:54;10.1;;;8.2;;
63953;SDS011;50128;52.094;5.232;2022-09-24T10:22:32;10.1;;;8.5;;
63953;SDS011;50128;52.094;5.232;2022-09-24T10:25:55;10.4;;;8.9;;
63953;SDS011;50128;52.094;5.232;2022-09-24T10:27:35;12.0;;;10.0;;
63953;SDS011;50128;52.094;5.232;2022-09-24T10:32:05;14.6;;;12.2;;
63953;SDS011;50128;52.094;5.232;2022-09-24T10:33:51;14.8;;;12.3;;
63953;SDS011;50128;52.094;5.232;2022-09-24T10:35:35;12.0;;;10.7;;
63953;SDS011;50128;52.094;5.232;2022-09-24T10:37:15;13.6;;;11.6;;
63953;SDS011;50128;52.094;5.232;2022-09-24T10:40:39;14.0;;;11.8;;
63953;SDS011;50128;52.094;5.232;2022-09-24T10:42:21;12.9;;;10.7;;
63953;SDS011;50128;52.094;5.232;2022-09-24T10:44:03;12.2;;;9.9;;
63953;SDS011;50128;52.094;5.232;2022-09-24T10:45:53;8.71;;;7.1;;
63953;SDS011;50128;52.094;5.232;2022-09-24T10:47:44;7.5;;;6.2;;
63953;SDS011;50128;52.094;5.232;2022-09-24T10:51:26;7.5;;;6.1;;
63953;SDS011;50128;52.094;5.232;2022-09-24T10:53:13;6.5;;;5.11;;
63953;SDS011;50128;52.094;5.232;2022-09-24T10:55:03;7.2;;;5.3;;
63953;SDS011;50128;52.094;5.232;2022-09-24T10:56:52;5.9;;;4.8;;
63953;SDS011;50128;52.094;5.232;2022-09-24T10:58:40;5.9;;;4.8;;
63953;SDS011;50128;52.094;5.232;2022-09-24T11:00:37;5.9;;;4.0;;
63953;SDS011;50128;52.094;5.232;2022-09-24T11:02:20;6.3;;;4.8;;
63953;SDS011;50128;52.094;5.232;2022-09-24T11:05:09;6.7;;;5.11;;
63953;SDS011;50128;52.094;5.232;2022-09-24T11:06:51;6.8;;;4.8;;
63953;SDS011;50128;52.094;5.232;2022-09-24T11:08:59;6.5;;;5.11;;
63953;SDS011;50128;52.094;5.232;2022-09-24T11:10:55;7.9;;;5.3;;
63953;SDS011;50128;52.094;5.232;2022-09-24T11:12:45;7.3;;;5.4;;
63953;SDS011;50128;52.094;5.232;2022-09-24T11:16:49;8.9;;;6.5;;
63953;SDS011;50128;52.094;5.232;2022-09-24T11:20:32;8.81;;;6.3;;
63953;SDS011;50128;52.094;5.232;2022-09-24T11:22:12;8.0;;;5.8;;
63953;SDS011;50128;52.094;5.232;2022-09-24T11:23:59;10.0;;;6.2;;
63953;SDS011;50128;52.094;5.232;2022-09-24T11:25:49;11.6;;;7.0;;
63953;SDS011;50128;52.094;5.232;2022-09-24T11:27:41;9.71;;;6.9;;
63953;SDS011;50128;52.094;5.232;2022-09-24T11:29:46;14.1;;;7.9;;
63953;SDS011;50128;52.094;5.232;2022-09-24T11:31:46;11.3;;;6.9;;
63953;SDS011;50128;52.094;5.232;2022-09-24T11:33:41;12.2;;;7.0;;
63953;SDS011;50128;52.094;5.232;2022-09-24T11:35:45;9.81;;;6.4;;
63953;SDS011;50128;52.094;5.232;2022-09-24T11:39:33;9.9;;;7.0;;
63953;SDS011;50128;52.094;5.232;2022-09-24T11:41:28;8.9;;;6.2;;
63953;SDS011;50128;52.094;5.232;2022-09-24T11:43:19;9.4;;;6.3;;
63953;SDS011;50128;52.094;5.232;2022-09-24T11:45:27;11.0;;;5.9;;
63953;SDS011;50128;52.094;5.232;2022-09-24T11:47:23;9.21;;;6.0;;
63953;SDS011;50128;52.094;5.232;2022-09-24T11:49:16;8.9;;;5.11;;
63953;SDS011;50128;52.094;5.232;2022-09-24T11:51:15;9.6;;;5.8;;
63953;SDS011;50128;52.094;5.232;2022-09-24T11:53:01;9.6;;;5.5;;
63953;SDS011;50128;52.094;5.232;2022-09-24T11:54:47;8.71;;;5.6;;
63953;SDS011;50128;52.094;5.232;2022-09-24T11:56:33;10.6;;;5.8;;
63953;SDS011;50128;52.094;5.232;2022-09-24T11:59:59;10.6;;;5.7;;
63953;SDS011;50128;52.094;5.232;2022-09-24T12:01:40;10.4;;;6.0;;
63953;SDS011;50128;52.094;5.232;2022-09-24T12:03:23;9.71;;;5.3;;
63953;SDS011;50128;52.094;5.232;2022-09-24T12:05:13;9.81;;;5.8;;
63953;SDS011;50128;52.094;5.232;2022-09-24T12:07:05;9.9;;;6.6;;
63953;SDS011;50128;52.094;5.232;2022-09-24T12:10:32;10.9;;;6.1;;
63953;SDS011;50128;52.094;5.232;2022-09-24T12:12:15;8.71;;;5.8;;
63953;SDS011;50128;52.094;5.232;2022-09-24T12:13:58;9.4;;;6.3;;
63953;SDS011;50128;52.094;5.232;2022-09-24T12:15:42;10.3;;;6.1;;
63953;SDS011;50128;52.094;5.232;2022-09-24T12:17:25;9.1;;;6.5;;
63953;SDS011;50128;52.094;5.232;2022-09-24T12:20:52;11.2;;;6.2;;
63953;SDS011;50128;52.094;5.232;2022-09-24T12:22:34;11.7;;;6.7;;
63953;SDS011;50128;52.094;5.232;2022-09-24T12:24:16;11.3;;;5.7;;
63953;SDS011;50128;52.094;5.232;2022-09-24T12:26:01;7.8;;;5.6;;
63953;SDS011;50128;52.094;5.232;2022-09-24T12:33:00;10.0;;;6.0;;
63953;SDS011;50128;52.094;5.232;2022-09-24T12:34:46;10.21;;;6.0;;
63953;SDS011;50128;52.094;5.232;2022-09-24T12:36:33;9.81;;;5.8;;
63953;SDS011;50128;52.094;5.232;2022-09-24T12:38:22;7.9;;;4.91;;
63953;SDS011;50128;52.094;5.232;2022-09-24T12:42:05;8.0;;;4.2;;
63953;SDS011;50128;52.094;5.232;2022-09-24T12:43:46;9.31;;;3.9;;
63953;SDS011;50128;52.094;5.232;2022-09-24T12:45:27;8.31;;;3.6;;
63953;SDS011;50128;52.094;5.232;2022-09-24T12:47:12;7.4;;;3.1;;
63953;SDS011;50128;52.094;5.232;2022-09-24T12:48:54;8.31;;;3.2;;
63953;SDS011;50128;52.094;5.232;2022-09-24T12:52:15;8.5;;;3.3;;
63953;SDS011;50128;52.094;5.232;2022-09-24T12:53:54;10.21;;;3.4;;